Time;durP1;ratioP1;P1;durP2;ratioP2;P2;SDS_P1;SDS_P2;PMS_P1;PMS_P2;Temp;Humidity;BMP_temperature;BMP_pressure;BME280_temperature;BME280_humidity;BME280_pressure;Samples;Min_cycle;Max_cycle;Signal;HPM_P1;HPM_P2
2023/08/11 00:01:06;;;;;;;11.65;5.72;;;;;;;19.23;96.60;101914.63;5114629;28;20055;-67
2023/08/11 00:03:34;;;;;;;12.63;5.97;;;;;;;19.21;96.59;101911.34;5113612;28;20384;-67
2023/08/11 00:06:02;;;;;;;9.23;5.60;;;;;;;19.18;96.77;101910.00;5115406;28;20047;-67
2023/08/11 00:08:30;;;;;;;13.38;6.25;;;;;;;19.14;96.84;101900.66;5080715;28;20063;-67
2023/08/11 00:10:57;;;;;;;8.98;5.82;;;;;;;19.11;97.02;101906.78;5081125;28;20491;-66
2023/08/11 00:13:25;;;;;;;8.93;5.35;;;;;;;19.08;97.46;101907.41;5094374;28;20043;-66
2023/08/11 00:15:53;;;;;;;9.70;5.63;;;;;;;19.05;97.63;101906.06;5107613;28;20056;-66
2023/08/11 00:18:21;;;;;;;13.43;5.88;;;;;;;19.04;97.77;101900.81;5096282;28;20048;-66
2023/08/11 00:20:49;;;;;;;11.00;6.03;;;;;;;19.00;98.03;101900.63;5112880;28;20043;-66
2023/08/11 00:23:17;;;;;;;12.85;5.85;;;;;;;18.98;98.20;101902.00;5112864;28;20415;-67
2023/08/11 00:25:44;;;;;;;12.80;5.93;;;;;;;18.96;98.51;101898.75;5113999;28;20083;-67
2023/08/11 00:28:13;;;;;;;10.25;5.80;;;;;;;18.96;98.41;101898.75;5113281;28;20075;-67
2023/08/11 00:30:42;;;;;;;10.05;5.90;;;;;;;18.97;98.64;101906.72;5096387;28;20050;-67
2023/08/11 00:33:10;;;;;;;11.25;6.25;;;;;;;19.00;98.28;101895.09;5114121;28;20047;-67
2023/08/11 00:35:40;;;;;;;9.70;5.93;;;;;;;19.01;97.95;101898.66;5115973;28;20048;-66
2023/08/11 00:38:07;;;;;;;11.50;6.45;;;;;;;19.00;98.00;101897.00;5086108;28;20048;-63
2023/08/11 00:40:36;;;;;;;9.20;6.03;;;;;;;18.96;98.10;101899.56;5119753;28;20392;-64
2023/08/11 00:43:04;;;;;;;10.63;5.90;;;;;;;18.95;98.05;101897.91;5084167;28;20103;-66
2023/08/11 00:45:32;;;;;;;11.82;6.07;;;;;;;18.92;98.31;101892.97;5132155;28;20041;-65
2023/08/11 00:48:00;;;;;;;9.18;6.45;;;;;;;18.93;98.35;101892.69;5116587;28;20039;-61
2023/08/11 00:50:28;;;;;;;10.35;5.93;;;;;;;18.94;98.25;101899.03;5117283;28;20066;-59
2023/08/11 00:53:00;;;;;;;10.15;6.57;;;;;;;18.94;98.18;101896.28;5117471;28;20063;-66
2023/08/11 00:55:29;;;;;;;10.52;6.35;;;;;;;18.92;98.00;101892.97;5116710;28;20040;-65
2023/08/11 00:57:57;;;;;;;11.48;6.45;;;;;;;18.90;98.23;101884.97;5109579;28;20052;-60
2023/08/11 01:00:25;;;;;;;13.98;6.93;;;;;;;18.88;97.89;101875.34;5115878;28;20061;-59
2023/08/11 01:02:52;;;;;;;9.32;6.45;;;;;;;18.85;98.13;101875.97;5133619;28;20055;-66
2023/08/11 01:05:22;;;;;;;10.82;6.72;;;;;;;18.82;98.41;101871.03;5099014;28;20040;-67
2023/08/11 01:08:05;;;;;;;11.57;6.70;;;;;;;18.83;98.53;101872.66;5062848;28;20059;-67
2023/08/11 01:10:45;;;;;;;12.02;7.20;;;;;;;18.79;98.32;101866.94;5095999;28;20503;-67
2023/08/11 01:13:18;;;;;;;12.95;7.40;;;;;;;18.77;98.37;101866.41;5069698;28;20058;-67
2023/08/11 01:16:07;;;;;;;9.93;6.30;;;;;;;18.74;98.69;101859.50;5076228;28;20066;-67
2023/08/11 01:18:35;;;;;;;10.85;7.03;;;;;;;18.72;98.69;101861.75;5078981;28;20040;-66
2023/08/11 01:21:10;;;;;;;9.68;6.90;;;;;;;18.72;98.67;101855.41;5113933;28;20048;-66
2023/08/11 01:23:40;;;;;;;11.80;6.95;;;;;;;18.73;98.35;101857.03;5111935;28;20051;-65
2023/08/11 01:26:08;;;;;;;13.52;7.13;;;;;;;18.73;98.34;101848.75;5096324;28;20049;-66
2023/08/11 01:28:36;;;;;;;10.20;7.45;;;;;;;18.72;98.54;101845.19;5113200;28;20047;-66
2023/08/11 01:31:04;;;;;;;13.18;8.40;;;;;;;18.74;98.24;101847.66;5112040;28;20038;-65
2023/08/11 01:33:31;;;;;;;10.50;7.50;;;;;;;18.74;98.05;101848.47;5114164;28;20048;-65
2023/08/11 01:35:59;;;;;;;10.80;7.47;;;;;;;18.73;97.93;101846.81;5117638;28;20044;-66
2023/08/11 01:38:27;;;;;;;11.70;7.43;;;;;;;18.73;97.83;101846.00;5116527;28;20118;-66
2023/08/11 01:40:57;;;;;;;11.85;8.15;;;;;;;18.70;97.89;101841.09;5108830;28;20053;-66
2023/08/11 01:43:27;;;;;;;13.45;7.70;;;;;;;18.68;97.91;101843.31;5046671;28;20043;-67
2023/08/11 01:45:57;;;;;;;12.40;8.45;;;;;;;18.67;97.85;101836.97;5079518;28;20054;-66
2023/08/11 01:48:25;;;;;;;11.73;7.88;;;;;;;18.64;97.84;101843.09;5095776;28;20105;-66
2023/08/11 01:50:53;;;;;;;12.15;7.35;;;;;;;18.61;98.17;101843.69;5096503;28;20066;-67
2023/08/11 01:53:21;;;;;;;13.05;8.60;;;;;;;18.59;98.47;101848.69;5110541;28;20048;-67
2023/08/11 01:55:50;;;;;;;9.73;7.30;;;;;;;18.61;98.62;101843.69;5096530;28;20040;-67
2023/08/11 01:58:17;;;;;;;11.68;8.15;;;;;;;18.63;98.54;101852.50;5078467;28;20109;-68
2023/08/11 02:00:45;;;;;;;11.93;8.43;;;;;;;18.62;98.18;101845.34;5107737;28;20050;-67
2023/08/11 02:03:13;;;;;;;13.90;8.82;;;;;;;18.59;98.38;101845.09;5115745;28;20048;-67
2023/08/11 02:05:41;;;;;;;12.20;8.30;;;;;;;18.56;98.63;101854.78;5116660;28;20059;-66
2023/08/11 02:08:10;;;;;;;12.65;8.57;;;;;;;18.53;98.89;101847.13;5117732;28;20047;-68
2023/08/11 02:10:38;;;;;;;12.88;8.90;;;;;;;18.50;99.01;101840.25;5101776;28;20084;-67
2023/08/11 02:13:06;;;;;;;12.30;8.90;;;;;;;18.48;99.22;101838.91;5117315;28;20047;-67
2023/08/11 02:15:34;;;;;;;13.20;8.90;;;;;;;18.44;99.74;101843.38;5118544;28;20112;-66
2023/08/11 02:18:03;;;;;;;12.80;9.23;;;;;;;18.41;100.00;101832.94;5115707;28;20096;-68
2023/08/11 02:20:32;;;;;;;16.33;9.82;;;;;;;18.36;100.00;101835.75;5095249;28;20040;-67
2023/08/11 02:23:00;;;;;;;13.95;9.38;;;;;;;18.32;100.00;101835.50;5094948;28;20055;-67
2023/08/11 02:25:28;;;;;;;15.40;9.65;;;;;;;18.29;100.00;101834.16;5102693;28;20112;-68
2023/08/11 02:27:56;;;;;;;16.70;10.32;;;;;;;18.29;100.00;101831.41;5115076;28;20058;-66
2023/08/11 02:30:24;;;;;;;14.85;10.57;;;;;;;18.28;100.00;101829.78;5096914;28;20044;-67
2023/08/11 02:32:52;;;;;;;13.98;10.57;;;;;;;18.26;100.00;101823.72;5116668;28;20044;-68
2023/08/11 02:35:21;;;;;;;14.10;10.07;;;;;;;18.24;100.00;101822.38;5116924;28;20158;-66
2023/08/11 02:37:49;;;;;;;20.38;10.65;;;;;;;18.23;100.00;101815.22;5096856;28;20048;-66
2023/08/11 02:40:20;;;;;;;16.27;10.80;;;;;;;18.21;100.00;101823.81;5116212;28;20048;-66
2023/08/11 02:42:57;;;;;;;16.48;10.90;;;;;;;18.18;100.00;101818.84;5097720;28;20040;-66
2023/08/11 02:45:25;;;;;;;17.48;10.18;;;;;;;18.16;100.00;101826.63;5114476;28;20089;-67
2023/08/11 02:47:55;;;;;;;16.40;10.93;;;;;;;18.16;100.00;101828.53;5078048;28;20040;-66
2023/08/11 02:50:23;;;;;;;15.27;9.48;;;;;;;18.15;100.00;101830.47;5099595;28;20432;-68
2023/08/11 02:52:51;;;;;;;14.10;9.98;;;;;;;18.16;100.00;101831.31;5098375;28;20051;-66
2023/08/11 02:55:19;;;;;;;13.77;9.60;;;;;;;18.15;100.00;101835.19;5113602;28;20051;-67
2023/08/11 02:57:47;;;;;;;15.75;9.77;;;;;;;18.14;100.00;101839.88;5115495;28;20047;-66
2023/08/11 03:00:15;;;;;;;13.43;9.77;;;;;;;18.15;100.00;101829.66;5097512;28;20044;-67
2023/08/11 03:02:47;;;;;;;13.25;9.98;;;;;;;18.14;100.00;101834.38;5114646;28;20051;-67
2023/08/11 03:05:16;;;;;;;18.30;10.73;;;;;;;18.09;100.00;101834.44;5096972;28;20051;-66
2023/08/11 03:07:47;;;;;;;13.23;9.75;;;;;;;18.05;100.00;101834.19;5096631;28;20050;-66
2023/08/11 03:10:15;;;;;;;13.77;9.48;;;;;;;18.03;100.00;101835.59;5080548;28;20046;-66
2023/08/11 03:12:44;;;;;;;12.70;9.60;;;;;;;18.01;100.00;101837.81;5080415;28;20044;-66
2023/08/11 03:15:13;;;;;;;12.98;9.65;;;;;;;17.99;100.00;101835.38;5095873;28;20062;-66
2023/08/11 03:17:42;;;;;;;15.00;10.18;;;;;;;17.97;100.00;101834.84;5115036;28;20104;-66
2023/08/11 03:20:12;;;;;;;34.65;10.13;;;;;;;17.93;100.00;101827.44;5078466;28;20043;-67
2023/08/11 03:22:42;;;;;;;12.75;9.32;;;;;;;17.89;100.00;101832.72;5093079;28;20047;-67
2023/08/11 03:25:14;;;;;;;16.50;9.25;;;;;;;17.87;100.00;101821.16;5093655;28;20595;-67
2023/08/11 03:27:42;;;;;;;14.02;9.43;;;;;;;17.83;100.00;101826.44;5076693;28;20055;-67
2023/08/11 03:30:17;;;;;;;14.30;9.00;;;;;;;17.83;100.00;101826.44;5080128;28;20104;-67
2023/08/11 03:32:50;;;;;;;12.88;9.32;;;;;;;17.86;100.00;101827.78;5090735;28;20044;-67
2023/08/11 03:35:20;;;;;;;12.48;9.30;;;;;;;17.88;100.00;101818.13;5079182;28;20048;-66
2023/08/11 03:37:49;;;;;;;13.65;9.55;;;;;;;17.87;100.00;101819.25;5096595;28;20039;-66
2023/08/11 03:40:17;;;;;;;13.40;9.43;;;;;;;17.84;100.00;101819.81;5108948;28;20036;-67
2023/08/11 03:42:52;;;;;;;14.48;8.65;;;;;;;17.86;100.00;101822.28;5062703;28;20062;-67
2023/08/11 03:45:20;;;;;;;13.05;9.15;;;;;;;17.84;100.00;101821.75;5076145;28;20051;-67
2023/08/11 03:47:48;;;;;;;13.55;9.65;;;;;;;17.82;100.00;101816.53;5062397;28;20051;-67
2023/08/11 03:50:22;;;;;;;15.23;9.10;;;;;;;17.79;100.00;101819.03;5078975;28;20050;-67
2023/08/11 03:52:50;;;;;;;12.25;9.30;;;;;;;17.73;100.00;101823.78;5114607;28;20414;-67
2023/08/11 03:55:18;;;;;;;16.65;8.90;;;;;;;17.70;100.00;101821.59;5095284;28;20395;-66
2023/08/11 03:57:46;;;;;;;13.70;8.90;;;;;;;17.71;100.00;101822.44;5095859;28;20040;-67
2023/08/11 04:00:19;;;;;;;13.60;8.95;;;;;;;17.72;100.00;101816.59;5064030;28;20078;-66
2023/08/11 04:02:58;;;;;;;16.90;9.10;;;;;;;17.73;100.00;101812.75;5096560;28;20116;-66
2023/08/11 04:05:27;;;;;;;11.88;8.93;;;;;;;17.74;100.00;101814.38;5095316;28;20040;-66
2023/08/11 04:07:55;;;;;;;14.57;9.00;;;;;;;17.73;100.00;101817.44;5113201;28;20050;-67
2023/08/11 04:10:24;;;;;;;14.75;9.05;;;;;;;17.72;100.00;101807.50;5112576;28;20047;-66
2023/08/11 04:12:52;;;;;;;15.52;8.35;;;;;;;17.73;100.00;101810.00;5113416;28;20043;-67
2023/08/11 04:15:20;;;;;;;14.45;8.40;;;;;;;17.72;100.00;101811.09;5112109;28;20059;-68
2023/08/11 04:17:47;;;;;;;11.93;8.48;;;;;;;17.68;100.00;101816.38;5079587;28;20044;-68
2023/08/11 04:20:16;;;;;;;15.35;9.02;;;;;;;17.60;100.00;101816.19;5097039;28;20389;-67
2023/08/11 04:22:44;;;;;;;12.93;8.88;;;;;;;17.55;100.00;101814.28;5114483;28;20392;-68
2023/08/11 04:25:13;;;;;;;14.55;8.98;;;;;;;17.55;100.00;101819.00;5114271;28;20407;-68
2023/08/11 04:27:44;;;;;;;13.40;9.63;;;;;;;17.54;100.00;101825.63;5076303;28;20048;-66
2023/08/11 04:30:13;;;;;;;15.48;9.63;;;;;;;17.53;100.00;101819.28;5076112;28;20095;-66
2023/08/11 04:32:43;;;;;;;13.02;9.43;;;;;;;17.54;100.00;101820.13;5043260;28;20101;-66
2023/08/11 04:35:12;;;;;;;13.13;9.18;;;;;;;17.51;100.00;101820.69;5082748;28;20040;-67
2023/08/11 04:37:41;;;;;;;18.00;9.23;;;;;;;17.54;100.00;101826.44;5092885;28;20048;-66
2023/08/11 04:40:13;;;;;;;15.02;9.30;;;;;;;17.54;100.00;101817.38;5096159;28;20043;-67
2023/08/11 04:42:44;;;;;;;12.98;8.93;;;;;;;17.54;100.00;101814.59;5079350;28;20056;-67
2023/08/11 04:45:15;;;;;;;13.07;9.05;;;;;;;17.54;100.00;101815.41;5096238;28;20051;-66
2023/08/11 04:47:43;;;;;;;14.15;9.38;;;;;;;17.56;100.00;101820.66;5073624;28;20048;-67
2023/08/11 04:50:15;;;;;;;13.85;9.68;;;;;;;17.57;100.00;101811.25;5075841;28;20070;-68
2023/08/11 04:52:42;;;;;;;17.42;11.52;;;;;;;17.52;100.00;101816.81;5076355;28;20048;-66
2023/08/11 04:55:14;;;;;;;20.30;11.23;;;;;;;17.43;100.00;101809.19;5103031;28;20059;-66
2023/08/11 04:57:43;;;;;;;17.38;11.25;;;;;;;17.42;100.00;101813.06;5078423;28;20052;-67
2023/08/11 05:00:16;;;;;;;15.68;10.63;;;;;;;17.47;100.00;101803.91;5079816;28;20516;-67
2023/08/11 05:02:45;;;;;;;16.85;11.80;;;;;;;17.54;100.00;101807.16;5114307;28;20055;-67
2023/08/11 05:05:13;;;;;;;16.75;10.10;;;;;;;17.58;100.00;101799.97;5126013;28;20394;-62
2023/08/11 05:07:42;;;;;;;14.32;10.00;;;;;;;17.63;100.00;101801.81;5136823;28;20067;-59
2023/08/11 05:10:10;;;;;;;14.32;10.32;;;;;;;17.67;100.00;101791.84;5105353;28;20079;-65
2023/08/11 05:12:38;;;;;;;18.55;10.75;;;;;;;17.71;100.00;101790.16;5127967;28;20126;-66
2023/08/11 05:15:06;;;;;;;14.73;9.90;;;;;;;17.75;100.00;101784.88;5089198;28;20059;-65
2023/08/11 05:17:34;;;;;;;18.25;11.02;;;;;;;17.76;100.00;101784.59;5074575;28;20408;-64
2023/08/11 05:20:06;;;;;;;15.18;9.90;;;;;;;17.78;100.00;101787.88;5132174;28;20040;-66
2023/08/11 05:22:35;;;;;;;15.20;10.43;;;;;;;17.80;100.00;101788.44;5087395;28;20115;-66
2023/08/11 05:25:04;;;;;;;16.58;10.85;;;;;;;17.81;100.00;101781.81;5117948;28;20755;-67
2023/08/11 05:27:32;;;;;;;15.82;10.88;;;;;;;17.83;100.00;101784.28;5065877;28;20187;-67
2023/08/11 05:30:00;;;;;;;14.98;10.00;;;;;;;17.83;100.00;101778.75;5077217;28;20051;-66
2023/08/11 05:32:29;;;;;;;14.30;9.75;;;;;;;17.82;100.00;101783.47;5087273;28;20054;-67
2023/08/11 05:34:58;;;;;;;18.00;9.98;;;;;;;17.83;100.00;101785.09;5116816;28;20040;-67
2023/08/11 05:37:26;;;;;;;15.30;9.55;;;;;;;17.84;100.00;101792.22;5119520;28;20036;-67
2023/08/11 05:39:54;;;;;;;19.92;9.98;;;;;;;17.86;100.00;101787.25;5116087;28;20043;-67
2023/08/11 05:42:22;;;;;;;19.65;11.00;;;;;;;17.87;100.00;101782.56;5116927;28;20044;-66
2023/08/11 05:44:50;;;;;;;18.95;11.43;;;;;;;17.89;100.00;101774.81;5117086;28;20051;-66
2023/08/11 05:47:19;;;;;;;18.02;10.68;;;;;;;17.91;100.00;101778.09;4398902;28;9999936;-68
2023/08/11 05:49:47;;;;;;;17.48;10.77;;;;;;;17.93;100.00;101777.81;5113625;28;20058;-67
2023/08/11 05:52:15;;;;;;;16.83;10.75;;;;;;;17.94;100.00;101782.22;5077909;28;20606;-67
2023/08/11 05:54:43;;;;;;;16.63;11.23;;;;;;;17.95;100.00;101781.94;5095127;28;20048;-67
2023/08/11 05:57:11;;;;;;;24.65;11.82;;;;;;;17.95;100.00;101775.59;5093979;28;20524;-66
2023/08/11 05:59:38;;;;;;;17.98;10.68;;;;;;;17.95;100.00;101778.34;5113852;28;20043;-67
2023/08/11 06:02:07;;;;;;;24.10;11.25;;;;;;;17.96;100.00;101779.97;5074169;28;20059;-66
2023/08/11 06:04:36;;;;;;;17.15;11.27;;;;;;;17.97;100.00;101782.44;5094490;28;20043;-67
2023/08/11 06:07:04;;;;;;;17.55;11.32;;;;;;;17.99;100.00;101785.75;5120573;28;20262;-65
2023/08/11 06:09:32;;;;;;;19.08;11.00;;;;;;;17.99;100.00;101779.38;5103676;28;20054;-67
2023/08/11 06:12:00;;;;;;;17.52;10.40;;;;;;;18.00;100.00;101775.53;5117557;28;20479;-66
2023/08/11 06:14:27;;;;;;;17.17;11.38;;;;;;;18.02;100.00;101781.56;5063768;28;20048;-66
2023/08/11 06:16:55;;;;;;;16.95;11.10;;;;;;;18.01;100.00;101779.91;5097132;28;20073;-66
2023/08/11 06:19:24;;;;;;;19.83;11.88;;;;;;;18.02;100.00;101787.09;5114131;28;20122;-67
2023/08/11 06:21:52;;;;;;;17.27;10.80;;;;;;;18.02;100.00;101787.09;5113630;28;20047;-67
2023/08/11 06:24:20;;;;;;;18.42;10.73;;;;;;;18.03;100.00;101786.78;5112230;28;20059;-69
2023/08/11 06:26:54;;;;;;;19.92;10.52;;;;;;;18.04;100.00;101785.69;5113164;28;20495;-67
2023/08/11 06:29:21;;;;;;;18.73;11.27;;;;;;;18.06;100.00;101790.88;5115880;28;20047;-64
2023/08/11 06:31:49;;;;;;;17.15;10.38;;;;;;;18.08;100.00;101785.88;5078745;28;20069;-67
2023/08/11 06:34:17;;;;;;;17.90;11.32;;;;;;;18.10;100.00;101789.19;5095739;28;20051;-66
2023/08/11 06:36:45;;;;;;;18.05;10.88;;;;;;;18.12;100.00;101792.47;5116134;28;20059;-66
2023/08/11 06:39:14;;;;;;;19.38;11.13;;;;;;;18.15;100.00;101791.88;5098252;28;20052;-66
2023/08/11 06:41:42;;;;;;;16.88;10.65;;;;;;;18.17;100.00;101789.63;5092461;28;20051;-66
2023/08/11 06:44:10;;;;;;;18.88;9.60;;;;;;;18.19;100.00;101790.16;5081182;28;20560;-64
2023/08/11 06:46:38;;;;;;;17.50;11.07;;;;;;;18.21;100.00;101785.19;5109020;28;20044;-66
2023/08/11 06:49:06;;;;;;;20.20;11.00;;;;;;;18.21;100.00;101796.22;5115038;28;20048;-66
2023/08/11 06:51:34;;;;;;;17.40;10.63;;;;;;;18.21;100.00;101789.88;5115557;28;20066;-66
2023/08/11 06:54:01;;;;;;;15.40;9.90;;;;;;;18.22;100.00;101789.56;5098156;28;20052;-65
2023/08/11 06:56:32;;;;;;;14.10;9.13;;;;;;;18.25;100.00;101790.91;5104781;28;20040;-66
2023/08/11 06:59:00;;;;;;;15.80;9.77;;;;;;;18.28;100.00;101796.69;5095281;28;20044;-66
2023/08/11 07:01:28;;;;;;;16.42;10.40;;;;;;;18.33;100.00;101803.22;5085989;28;20217;-65
2023/08/11 07:03:56;;;;;;;16.50;10.50;;;;;;;18.36;100.00;101808.97;5114255;28;20058;-67
2023/08/11 07:06:27;;;;;;;19.42;9.70;;;;;;;18.38;100.00;101806.75;5114087;28;20052;-68
2023/08/11 07:08:55;;;;;;;15.07;9.50;;;;;;;18.41;100.00;101810.84;5115405;28;20054;-65
2023/08/11 07:11:22;;;;;;;16.55;9.93;;;;;;;18.44;100.00;101810.25;5074692;28;20050;-68
2023/08/11 07:13:50;;;;;;;15.82;11.52;;;;;;;18.46;100.00;101810.78;5077347;28;20051;-67
2023/08/11 07:16:18;;;;;;;15.43;9.43;;;;;;;18.48;100.00;101808.56;5101229;28;20053;-67
2023/08/11 07:18:46;;;;;;;16.25;10.00;;;;;;;18.52;100.00;101812.38;5097207;28;20102;-68
2023/08/11 07:21:14;;;;;;;17.30;10.27;;;;;;;18.56;100.00;101807.88;5114387;28;20040;-67
2023/08/11 07:23:41;;;;;;;16.42;11.40;;;;;;;18.60;100.00;101806.16;5115317;28;20040;-67
2023/08/11 07:26:09;;;;;;;15.23;10.30;;;;;;;18.62;100.00;101806.69;5095682;28;20101;-66
2023/08/11 07:28:37;;;;;;;14.10;9.88;;;;;;;18.66;100.00;101809.66;5111413;28;20403;-67
2023/08/11 07:31:05;;;;;;;17.35;10.00;;;;;;;18.70;100.00;101803.25;5113816;28;20056;-66
2023/08/11 07:33:33;;;;;;;20.98;11.10;;;;;;;18.74;100.00;101800.72;5100335;28;20052;-66
2023/08/11 07:36:01;;;;;;;21.08;10.15;;;;;;;18.77;100.00;101802.09;5096353;28;20055;-66
2023/08/11 07:38:28;;;;;;;17.63;9.88;;;;;;;18.80;100.00;101802.31;5089188;28;20042;-66
2023/08/11 07:40:56;;;;;;;17.98;11.05;;;;;;;18.83;100.00;101800.88;5094402;28;20404;-65
2023/08/11 07:43:24;;;;;;;17.55;10.98;;;;;;;18.87;100.00;101807.44;5112661;28;20039;-66
2023/08/11 07:45:52;;;;;;;19.77;10.02;;;;;;;18.89;100.00;101806.03;5114497;28;20040;-66
2023/08/11 07:48:19;;;;;;;16.63;9.48;;;;;;;18.93;100.00;101812.59;5079729;28;20380;-66
2023/08/11 07:50:48;;;;;;;18.80;10.32;;;;;;;18.97;100.00;101807.28;5114449;28;20052;-66
2023/08/11 07:53:16;;;;;;;20.65;10.52;;;;;;;19.02;100.00;101811.91;5111871;28;20044;-66
2023/08/11 07:55:45;;;;;;;16.17;9.40;;;;;;;19.04;100.00;101810.47;5113554;28;20044;-65
2023/08/11 07:58:12;;;;;;;15.88;9.43;;;;;;;19.09;100.00;101804.88;5112883;28;20072;-66
2023/08/11 08:00:40;;;;;;;13.18;8.43;;;;;;;19.12;100.00;101809.81;5084673;28;20483;-66
2023/08/11 08:03:08;;;;;;;17.70;10.00;;;;;;;19.16;100.00;101810.00;5094258;28;20556;-66
2023/08/11 08:05:36;;;;;;;12.52;7.57;;;;;;;19.19;100.00;101814.13;5052634;28;20667;-67
2023/08/11 08:08:04;;;;;;;18.23;9.00;;;;;;;19.22;100.00;101807.97;5073243;28;20562;-66
2023/08/11 08:10:32;;;;;;;18.17;8.50;;;;;;;19.26;100.00;101814.53;5069321;28;20046;-66
2023/08/11 08:13:00;;;;;;;16.20;8.10;;;;;;;19.31;100.00;101818.06;5073876;28;20045;-66
2023/08/11 08:15:28;;;;;;;16.20;8.07;;;;;;;19.37;100.00;101816.00;5036545;28;20087;-66
2023/08/11 08:17:56;;;;;;;18.83;8.80;;;;;;;19.41;100.00;101808.75;5068259;28;20051;-66
2023/08/11 08:20:25;;;;;;;15.15;7.93;;;;;;;19.44;100.00;101808.16;5054268;28;20057;-66
2023/08/11 08:22:52;;;;;;;15.70;8.57;;;;;;;19.47;100.00;101810.31;5072092;28;20051;-66
2023/08/11 08:25:20;;;;;;;15.00;7.90;;;;;;;19.53;100.00;101817.38;5016051;28;20409;-68
2023/08/11 08:27:48;;;;;;;15.52;8.05;;;;;;;19.59;100.00;101821.69;5015664;28;20057;-67
2023/08/11 08:30:33;;;;;;;17.33;8.70;;;;;;;19.67;100.00;101822.09;5050905;28;20614;-66
2023/08/11 08:33:01;;;;;;;14.88;8.35;;;;;;;19.71;100.00;101817.66;5053146;28;20393;-68
2023/08/11 08:35:30;;;;;;;18.48;7.90;;;;;;;19.73;100.00;101813.44;5051604;28;20497;-68
2023/08/11 08:37:58;;;;;;;14.57;8.02;;;;;;;19.76;100.00;101810.06;5069602;28;20500;-67
2023/08/11 08:40:27;;;;;;;17.90;7.07;;;;;;;19.78;100.00;101809.75;5064111;28;20059;-67
2023/08/11 08:42:55;;;;;;;16.20;6.45;;;;;;;19.82;100.00;101812.72;5053151;28;20369;-68
2023/08/11 08:45:23;;;;;;;13.52;7.00;;;;;;;19.85;100.00;101809.38;5057470;28;20052;-66
2023/08/11 08:47:52;;;;;;;10.88;6.43;;;;;;;19.88;100.00;101814.28;5070940;28;20048;-67
2023/08/11 08:50:22;;;;;;;14.73;7.10;;;;;;;19.91;100.00;101808.94;5040680;28;20098;-67
2023/08/11 08:52:51;;;;;;;12.95;6.40;;;;;;;19.97;100.00;101804.94;5063555;28;20438;-67
2023/08/11 08:55:20;;;;;;;13.82;6.35;;;;;;;20.01;100.00;101805.13;5077038;28;20048;-67
2023/08/11 08:57:47;;;;;;;16.05;6.22;;;;;;;20.05;100.00;101810.88;5056041;28;20053;-67
2023/08/11 09:00:18;;;;;;;12.95;5.93;;;;;;;20.12;99.80;101805.75;5039292;28;20067;-66
2023/08/11 09:02:46;;;;;;;10.90;6.07;;;;;;;20.20;99.42;101810.56;5035265;28;20521;-66
2023/08/11 09:05:14;;;;;;;12.23;6.28;;;;;;;20.26;99.31;101803.00;5052244;28;20108;-67
2023/08/11 09:07:42;;;;;;;12.93;6.57;;;;;;;20.30;98.91;101810.38;5028666;28;20098;-66
2023/08/11 09:10:10;;;;;;;14.85;6.25;;;;;;;20.35;99.04;101813.00;5055432;28;20045;-67
2023/08/11 09:12:38;;;;;;;11.18;5.70;;;;;;;20.40;98.79;101809.31;5057368;28;20041;-66
2023/08/11 09:15:08;;;;;;;15.05;7.72;;;;;;;20.46;98.44;101810.00;5039192;28;20055;-67
2023/08/11 09:17:38;;;;;;;10.55;5.25;;;;;;;20.53;98.01;101804.88;5039067;28;20053;-65
2023/08/11 09:20:09;;;;;;;10.35;5.05;;;;;;;20.68;97.21;101809.25;5059865;28;20056;-64
2023/08/11 09:22:38;;;;;;;9.90;5.55;;;;;;;20.71;96.51;101808.63;5047569;28;20140;-63
2023/08/11 09:25:07;;;;;;;24.58;4.97;;;;;;;20.70;96.81;101807.81;5026599;28;20520;-64
2023/08/11 09:27:35;;;;;;;15.43;7.07;;;;;;;20.71;97.31;101811.41;5054405;28;20143;-69
2023/08/11 09:30:04;;;;;;;15.50;6.50;;;;;;;20.72;97.44;101811.09;5067476;28;20104;-59
2023/08/11 09:32:35;;;;;;;9.20;5.15;;;;;;;20.82;95.31;101810.03;5047556;28;20041;-67
2023/08/11 09:35:08;;;;;;;10.57;5.28;;;;;;;20.92;94.27;101806.19;5072280;28;20076;-65
2023/08/11 09:37:36;;;;;;;11.10;4.88;;;;;;;20.99;92.13;101807.41;5061368;28;20614;-66
2023/08/11 09:40:06;;;;;;;11.85;5.38;;;;;;;21.04;93.72;101804.50;5058959;28;20052;-66
2023/08/11 09:42:34;;;;;;;12.25;5.18;;;;;;;21.13;93.11;101796.25;5072338;28;20049;-67
2023/08/11 09:45:02;;;;;;;9.18;4.60;;;;;;;21.17;92.20;101804.78;5055440;28;20045;-67
2023/08/11 09:47:29;;;;;;;11.23;4.95;;;;;;;21.15;92.42;101802.31;5055942;28;20044;-67
2023/08/11 09:49:58;;;;;;;11.10;4.55;;;;;;;21.23;91.90;101795.97;5055058;28;20048;-67
2023/08/11 09:52:27;;;;;;;9.27;4.40;;;;;;;21.33;90.65;101796.84;5057147;28;20044;-67
2023/08/11 09:54:55;;;;;;;10.68;4.93;;;;;;;21.41;90.50;101796.13;5050991;28;20113;-66
2023/08/11 09:57:23;;;;;;;9.68;4.65;;;;;;;21.48;90.20;101799.28;5058403;28;20492;-65
2023/08/11 09:59:53;;;;;;;10.50;4.97;;;;;;;21.47;90.71;101792.88;5066687;28;20045;-67
2023/08/11 10:02:24;;;;;;;14.32;5.82;;;;;;;21.45;90.89;101797.97;5035719;28;20056;-67
2023/08/11 10:04:59;;;;;;;12.98;5.40;;;;;;;21.42;90.52;101795.81;5065012;28;20086;-66
2023/08/11 10:07:40;;;;;;;11.77;5.18;;;;;;;21.53;89.59;101796.38;5061989;28;20057;-66
2023/08/11 10:10:19;;;;;;;10.50;4.25;;;;;;;21.65;89.55;101793.81;5046735;28;20192;-67
2023/08/11 10:13:02;;;;;;;7.18;4.30;;;;;;;21.83;89.17;101793.88;5018910;28;20051;-67
2023/08/11 10:15:31;;;;;;;8.50;4.18;;;;;;;21.94;88.44;101800.78;5053894;28;20053;-67
2023/08/11 10:18:00;;;;;;;7.80;4.30;;;;;;;22.03;88.31;101798.00;5075757;28;20147;-66
2023/08/11 10:20:28;;;;;;;10.60;4.95;;;;;;;22.07;86.92;101799.81;5077043;28;20053;-67
2023/08/11 10:22:57;;;;;;;7.25;4.32;;;;;;;22.09;87.04;101802.28;5021926;28;20044;-69
2023/08/11 10:25:26;;;;;;;8.15;4.20;;;;;;;22.08;87.48;101806.19;5058298;28;20041;-67
2023/08/11 10:27:54;;;;;;;12.35;4.70;;;;;;;22.15;87.95;101803.75;5021593;28;20049;-66
2023/08/11 10:30:23;;;;;;;8.93;4.68;;;;;;;22.22;87.52;101794.97;5054937;28;20492;-67
2023/08/11 10:32:56;;;;;;;10.20;4.57;;;;;;;22.23;87.98;101788.31;5070054;28;20049;-68
2023/08/11 10:35:34;;;;;;;9.45;4.57;;;;;;;22.28;87.57;101785.38;5054723;28;20102;-67
2023/08/11 10:38:04;;;;;;;12.88;4.53;;;;;;;22.41;87.91;101781.63;5053729;28;20048;-67
2023/08/11 10:40:39;;;;;;;9.45;4.35;;;;;;;22.46;86.74;101784.22;5055437;28;20053;-68
2023/08/11 10:43:07;;;;;;;9.70;4.70;;;;;;;22.49;86.65;101783.59;5020674;28;20563;-67
2023/08/11 10:45:39;;;;;;;8.13;4.47;;;;;;;22.56;87.36;101785.88;5057655;28;20052;-68
2023/08/11 10:48:09;;;;;;;10.80;4.70;;;;;;;22.65;86.92;101785.88;5073971;28;20485;-67
2023/08/11 10:50:37;;;;;;;11.40;4.35;;;;;;;22.73;85.08;101783.13;5039418;28;20056;-67
2023/08/11 10:53:21;;;;;;;24.73;12.52;;;;;;;22.71;84.73;101776.25;5037355;28;20508;-66
2023/08/11 10:56:02;;;;;;;41.65;20.80;;;;;;;22.59;85.71;101781.66;5056103;28;20051;-65
2023/08/11 10:58:30;;;;;;;91.22;42.80;;;;;;;22.55;85.87;101779.50;5036815;28;20404;-65
2023/08/11 11:00:58;;;;;;;21.52;11.93;;;;;;;22.71;84.31;101779.03;5053381;28;20079;-65
2023/08/11 11:03:26;;;;;;;41.33;21.50;;;;;;;22.81;84.56;101778.69;5053669;28;20053;-66
2023/08/11 11:05:54;;;;;;;68.43;34.80;;;;;;;22.86;84.73;101775.75;5058328;28;20041;-65
2023/08/11 11:08:22;;;;;;;34.03;16.73;;;;;;;22.91;84.81;101789.47;5074243;28;20074;-65
2023/08/11 11:10:51;;;;;;;143.68;66.43;;;;;;;22.84;84.07;101789.16;5074774;28;20044;-67
2023/08/11 11:13:19;;;;;;;21.45;12.00;;;;;;;22.84;82.81;101786.38;5041520;28;20046;-65
2023/08/11 11:15:47;;;;;;;112.40;56.03;;;;;;;22.79;84.04;101782.94;5028241;28;20065;-67
2023/08/11 11:18:15;;;;;;;15.90;9.60;;;;;;;22.81;83.50;101775.91;5014837;28;20057;-66
2023/08/11 11:20:45;;;;;;;52.20;26.02;;;;;;;22.83;84.62;101778.38;4997368;28;20045;-66